sensor_id;sensor_type;location;lat;lon;timestamp;P1;durP1;ratioP1;P2;durP2;ratioP2
52786;SDS011;38661;53.152;5.846;2023-11-21T00:01:54;18.15;;;7.13;;
52786;SDS011;38661;53.152;5.846;2023-11-21T00:04:20;16.30;;;6.25;;
52786;SDS011;38661;53.152;5.846;2023-11-21T00:06:46;19.08;;;7.15;;
52786;SDS011;38661;53.152;5.846;2023-11-21T00:09:12;19.23;;;6.88;;
52786;SDS011;38661;53.152;5.846;2023-11-21T00:11:40;16.45;;;5.97;;
52786;SDS011;38661;53.152;5.846;2023-11-21T00:14:06;12.43;;;5.90;;
52786;SDS011;38661;53.152;5.846;2023-11-21T00:16:33;13.63;;;6.03;;
52786;SDS011;38661;53.152;5.846;2023-11-21T00:18:59;13.00;;;6.20;;
52786;SDS011;38661;53.152;5.846;2023-11-21T00:21:25;13.88;;;5.75;;
52786;SDS011;38661;53.152;5.846;2023-11-21T00:23:50;13.15;;;6.75;;
52786;SDS011;38661;53.152;5.846;2023-11-21T00:26:16;15.52;;;5.68;;
52786;SDS011;38661;53.152;5.846;2023-11-21T00:28:42;14.30;;;6.07;;
52786;SDS011;38661;53.152;5.846;2023-11-21T00:31:08;13.63;;;5.85;;
52786;SDS011;38661;53.152;5.846;2023-11-21T00:33:33;12.02;;;5.53;;
52786;SDS011;38661;53.152;5.846;2023-11-21T00:35:59;9.20;;;5.38;;
52786;SDS011;38661;53.152;5.846;2023-11-21T00:38:25;8.18;;;5.40;;
52786;SDS011;38661;53.152;5.846;2023-11-21T00:40:52;11.88;;;5.72;;
52786;SDS011;38661;53.152;5.846;2023-11-21T00:43:21;11.88;;;5.43;;
52786;SDS011;38661;53.152;5.846;2023-11-21T00:45:48;11.32;;;5.82;;
52786;SDS011;38661;53.152;5.846;2023-11-21T00:48:16;10.90;;;5.10;;
52786;SDS011;38661;53.152;5.846;2023-11-21T00:50:43;10.82;;;5.55;;
52786;SDS011;38661;53.152;5.846;2023-11-21T00:53:09;13.70;;;6.03;;
52786;SDS011;38661;53.152;5.846;2023-11-21T00:55:36;10.35;;;5.70;;
52786;SDS011;38661;53.152;5.846;2023-11-21T00:58:04;10.18;;;4.53;;
52786;SDS011;38661;53.152;5.846;2023-11-21T01:00:31;9.82;;;4.82;;
52786;SDS011;38661;53.152;5.846;2023-11-21T01:03:00;8.52;;;4.32;;
52786;SDS011;38661;53.152;5.846;2023-11-21T01:05:26;10.27;;;4.82;;
52786;SDS011;38661;53.152;5.846;2023-11-21T01:07:52;11.02;;;4.22;;
52786;SDS011;38661;53.152;5.846;2023-11-21T01:10:18;8.90;;;4.40;;
52786;SDS011;38661;53.152;5.846;2023-11-21T01:12:43;9.45;;;4.60;;
52786;SDS011;38661;53.152;5.846;2023-11-21T01:15:09;9.60;;;4.45;;
52786;SDS011;38661;53.152;5.846;2023-11-21T01:17:37;8.90;;;4.57;;
52786;SDS011;38661;53.152;5.846;2023-11-21T01:20:03;8.55;;;4.47;;
52786;SDS011;38661;53.152;5.846;2023-11-21T01:22:36;14.70;;;4.97;;
52786;SDS011;38661;53.152;5.846;2023-11-21T01:25:02;8.70;;;4.03;;
52786;SDS011;38661;53.152;5.846;2023-11-21T01:27:32;9.10;;;4.78;;
52786;SDS011;38661;53.152;5.846;2023-11-21T01:29:59;12.43;;;5.25;;
52786;SDS011;38661;53.152;5.846;2023-11-21T01:32:25;11.10;;;5.00;;
52786;SDS011;38661;53.152;5.846;2023-11-21T01:34:50;16.95;;;5.63;;
52786;SDS011;38661;53.152;5.846;2023-11-21T01:37:16;9.13;;;5.22;;
52786;SDS011;38661;53.152;5.846;2023-11-21T01:39:43;12.63;;;5.72;;
52786;SDS011;38661;53.152;5.846;2023-11-21T01:42:09;10.65;;;5.32;;
52786;SDS011;38661;53.152;5.846;2023-11-21T01:44:36;14.48;;;6.03;;
52786;SDS011;38661;53.152;5.846;2023-11-21T01:47:01;12.88;;;6.13;;
52786;SDS011;38661;53.152;5.846;2023-11-21T01:49:30;13.10;;;5.95;;
52786;SDS011;38661;53.152;5.846;2023-11-21T01:51:58;13.95;;;6.00;;
52786;SDS011;38661;53.152;5.846;2023-11-21T01:54:24;17.52;;;6.68;;
52786;SDS011;38661;53.152;5.846;2023-11-21T01:56:50;14.45;;;6.57;;
52786;SDS011;38661;53.152;5.846;2023-11-21T01:59:20;17.23;;;8.32;;
52786;SDS011;38661;53.152;5.846;2023-11-21T02:01:47;22.38;;;7.45;;
52786;SDS011;38661;53.152;5.846;2023-11-21T02:04:13;14.90;;;6.07;;
52786;SDS011;38661;53.152;5.846;2023-11-21T02:06:39;13.55;;;5.57;;
52786;SDS011;38661;53.152;5.846;2023-11-21T02:09:05;23.20;;;6.28;;
52786;SDS011;38661;53.152;5.846;2023-11-21T02:11:31;14.00;;;6.18;;
52786;SDS011;38661;53.152;5.846;2023-11-21T02:14:00;13.90;;;5.65;;
52786;SDS011;38661;53.152;5.846;2023-11-21T02:16:26;15.30;;;6.00;;
52786;SDS011;38661;53.152;5.846;2023-11-21T02:18:52;18.35;;;5.93;;
52786;SDS011;38661;53.152;5.846;2023-11-21T02:21:18;15.70;;;5.53;;
52786;SDS011;38661;53.152;5.846;2023-11-21T02:23:44;16.73;;;5.78;;
52786;SDS011;38661;53.152;5.846;2023-11-21T02:26:12;20.10;;;6.38;;
52786;SDS011;38661;53.152;5.846;2023-11-21T02:28:39;15.80;;;5.85;;
52786;SDS011;38661;53.152;5.846;2023-11-21T02:31:05;15.60;;;5.57;;
52786;SDS011;38661;53.152;5.846;2023-11-21T02:33:32;22.10;;;5.45;;
52786;SDS011;38661;53.152;5.846;2023-11-21T02:35:59;14.80;;;6.05;;
52786;SDS011;38661;53.152;5.846;2023-11-21T02:38:25;16.50;;;5.72;;
52786;SDS011;38661;53.152;5.846;2023-11-21T02:40:51;14.77;;;5.13;;
52786;SDS011;38661;53.152;5.846;2023-11-21T02:43:17;15.50;;;5.40;;
52786;SDS011;38661;53.152;5.846;2023-11-21T02:45:43;17.10;;;4.95;;
52786;SDS011;38661;53.152;5.846;2023-11-21T02:48:08;17.23;;;5.72;;
52786;SDS011;38661;53.152;5.846;2023-11-21T02:50:34;16.42;;;5.50;;
52786;SDS011;38661;53.152;5.846;2023-11-21T02:53:03;26.45;;;8.15;;
52786;SDS011;38661;53.152;5.846;2023-11-21T02:55:31;19.65;;;7.22;;
52786;SDS011;38661;53.152;5.846;2023-11-21T02:57:59;16.98;;;6.18;;
52786;SDS011;38661;53.152;5.846;2023-11-21T03:00:26;20.65;;;6.38;;
52786;SDS011;38661;53.152;5.846;2023-11-21T03:02:51;25.35;;;7.32;;
52786;SDS011;38661;53.152;5.846;2023-11-21T03:05:18;15.75;;;5.20;;
52786;SDS011;38661;53.152;5.846;2023-11-21T03:07:44;11.98;;;5.13;;
52786;SDS011;38661;53.152;5.846;2023-11-21T03:10:10;15.23;;;5.07;;
52786;SDS011;38661;53.152;5.846;2023-11-21T03:12:36;11.93;;;4.70;;
52786;SDS011;38661;53.152;5.846;2023-11-21T03:15:03;18.85;;;5.95;;
52786;SDS011;38661;53.152;5.846;2023-11-21T03:17:32;13.48;;;4.38;;
52786;SDS011;38661;53.152;5.846;2023-11-21T03:20:01;11.32;;;4.35;;
52786;SDS011;38661;53.152;5.846;2023-11-21T03:22:29;8.07;;;4.30;;
52786;SDS011;38661;53.152;5.846;2023-11-21T03:24:54;10.18;;;3.83;;
52786;SDS011;38661;53.152;5.846;2023-11-21T03:27:20;6.53;;;3.70;;
52786;SDS011;38661;53.152;5.846;2023-11-21T03:29:46;7.97;;;3.05;;
52786;SDS011;38661;53.152;5.846;2023-11-21T03:32:13;6.10;;;3.63;;
52786;SDS011;38661;53.152;5.846;2023-11-21T03:34:52;6.03;;;3.38;;
52786;SDS011;38661;53.152;5.846;2023-11-21T03:37:20;6.95;;;3.25;;
52786;SDS011;38661;53.152;5.846;2023-11-21T03:39:46;7.97;;;3.30;;
52786;SDS011;38661;53.152;5.846;2023-11-21T03:42:12;7.93;;;3.40;;
52786;SDS011;38661;53.152;5.846;2023-11-21T03:44:37;9.15;;;3.38;;
52786;SDS011;38661;53.152;5.846;2023-11-21T03:47:03;10.23;;;3.97;;
52786;SDS011;38661;53.152;5.846;2023-11-21T03:49:30;7.43;;;3.60;;
52786;SDS011;38661;53.152;5.846;2023-11-21T03:51:56;9.38;;;3.67;;
52786;SDS011;38661;53.152;5.846;2023-11-21T03:54:21;12.52;;;4.10;;
52786;SDS011;38661;53.152;5.846;2023-11-21T03:56:47;10.43;;;4.95;;
52786;SDS011;38661;53.152;5.846;2023-11-21T03:59:14;8.07;;;4.45;;
52786;SDS011;38661;53.152;5.846;2023-11-21T04:01:40;14.35;;;5.28;;
52786;SDS011;38661;53.152;5.846;2023-11-21T04:04:06;10.63;;;5.07;;
52786;SDS011;38661;53.152;5.846;2023-11-21T04:06:31;10.45;;;5.05;;
52786;SDS011;38661;53.152;5.846;2023-11-21T04:08:58;10.18;;;5.13;;
52786;SDS011;38661;53.152;5.846;2023-11-21T04:11:24;12.45;;;5.50;;
52786;SDS011;38661;53.152;5.846;2023-11-21T04:13:49;11.70;;;5.85;;
52786;SDS011;38661;53.152;5.846;2023-11-21T04:16:15;15.55;;;6.70;;
52786;SDS011;38661;53.152;5.846;2023-11-21T04:18:41;9.45;;;5.90;;
52786;SDS011;38661;53.152;5.846;2023-11-21T04:21:07;16.10;;;6.72;;
52786;SDS011;38661;53.152;5.846;2023-11-21T04:23:33;15.10;;;7.20;;
52786;SDS011;38661;53.152;5.846;2023-11-21T04:25:59;16.63;;;7.50;;
52786;SDS011;38661;53.152;5.846;2023-11-21T04:28:28;17.70;;;7.40;;
52786;SDS011;38661;53.152;5.846;2023-11-21T04:30:53;13.27;;;7.13;;
52786;SDS011;38661;53.152;5.846;2023-11-21T04:33:19;16.65;;;8.00;;
52786;SDS011;38661;53.152;5.846;2023-11-21T04:35:46;15.13;;;7.63;;
52786;SDS011;38661;53.152;5.846;2023-11-21T04:38:12;17.70;;;8.70;;
52786;SDS011;38661;53.152;5.846;2023-11-21T04:40:38;16.15;;;7.50;;
52786;SDS011;38661;53.152;5.846;2023-11-21T04:43:04;19.45;;;7.93;;
52786;SDS011;38661;53.152;5.846;2023-11-21T04:45:29;12.70;;;8.10;;
52786;SDS011;38661;53.152;5.846;2023-11-21T04:47:55;22.10;;;9.10;;
52786;SDS011;38661;53.152;5.846;2023-11-21T04:50:21;16.35;;;8.45;;
52786;SDS011;38661;53.152;5.846;2023-11-21T04:52:47;13.30;;;8.18;;
52786;SDS011;38661;53.152;5.846;2023-11-21T04:55:12;19.73;;;8.75;;
52786;SDS011;38661;53.152;5.846;2023-11-21T04:57:38;19.80;;;8.68;;
52786;SDS011;38661;53.152;5.846;2023-11-21T05:00:08;17.63;;;9.48;;
52786;SDS011;38661;53.152;5.846;2023-11-21T05:02:35;15.85;;;9.23;;
52786;SDS011;38661;53.152;5.846;2023-11-21T05:05:00;25.45;;;12.13;;
52786;SDS011;38661;53.152;5.846;2023-11-21T05:07:27;17.52;;;9.10;;
52786;SDS011;38661;53.152;5.846;2023-11-21T05:09:54;22.40;;;10.23;;
52786;SDS011;38661;53.152;5.846;2023-11-21T05:12:21;25.83;;;10.25;;
52786;SDS011;38661;53.152;5.846;2023-11-21T05:14:50;19.00;;;9.38;;
52786;SDS011;38661;53.152;5.846;2023-11-21T05:17:16;19.00;;;9.35;;
52786;SDS011;38661;53.152;5.846;2023-11-21T05:19:42;17.15;;;8.60;;
52786;SDS011;38661;53.152;5.846;2023-11-21T05:22:10;18.88;;;9.07;;
52786;SDS011;38661;53.152;5.846;2023-11-21T05:24:37;18.65;;;8.45;;
52786;SDS011;38661;53.152;5.846;2023-11-21T05:27:04;20.08;;;9.35;;
52786;SDS011;38661;53.152;5.846;2023-11-21T05:29:30;20.35;;;10.10;;
52786;SDS011;38661;53.152;5.846;2023-11-21T05:31:56;18.83;;;8.80;;
52786;SDS011;38661;53.152;5.846;2023-11-21T05:34:22;19.38;;;9.57;;
52786;SDS011;38661;53.152;5.846;2023-11-21T05:36:49;19.88;;;9.43;;
52786;SDS011;38661;53.152;5.846;2023-11-21T05:39:15;17.73;;;9.48;;
52786;SDS011;38661;53.152;5.846;2023-11-21T05:41:42;23.23;;;10.43;;
52786;SDS011;38661;53.152;5.846;2023-11-21T05:44:08;23.90;;;11.13;;
52786;SDS011;38661;53.152;5.846;2023-11-21T05:46:34;27.92;;;13.07;;
52786;SDS011;38661;53.152;5.846;2023-11-21T05:49:00;23.38;;;12.18;;
52786;SDS011;38661;53.152;5.846;2023-11-21T05:51:25;28.17;;;12.55;;
52786;SDS011;38661;53.152;5.846;2023-11-21T05:53:51;22.42;;;11.27;;
52786;SDS011;38661;53.152;5.846;2023-11-21T05:56:17;25.88;;;12.98;;
52786;SDS011;38661;53.152;5.846;2023-11-21T05:58:43;27.55;;;12.77;;
52786;SDS011;38661;53.152;5.846;2023-11-21T06:01:08;23.13;;;11.80;;
52786;SDS011;38661;53.152;5.846;2023-11-21T06:03:37;27.55;;;12.70;;
52786;SDS011;38661;53.152;5.846;2023-11-21T06:06:03;22.65;;;11.70;;
52786;SDS011;38661;53.152;5.846;2023-11-21T06:08:29;22.70;;;10.70;;
52786;SDS011;38661;53.152;5.846;2023-11-21T06:10:55;23.33;;;11.38;;
52786;SDS011;38661;53.152;5.846;2023-11-21T06:13:21;21.55;;;9.98;;
52786;SDS011;38661;53.152;5.846;2023-11-21T06:15:49;18.10;;;11.52;;
52786;SDS011;38661;53.152;5.846;2023-11-21T06:18:16;17.80;;;9.93;;
52786;SDS011;38661;53.152;5.846;2023-11-21T06:20:45;19.65;;;10.70;;
52786;SDS011;38661;53.152;5.846;2023-11-21T06:23:11;21.65;;;9.80;;
52786;SDS011;38661;53.152;5.846;2023-11-21T06:25:36;19.38;;;10.60;;
52786;SDS011;38661;53.152;5.846;2023-11-21T06:28:03;35.15;;;14.07;;
52786;SDS011;38661;53.152;5.846;2023-11-21T06:30:28;24.52;;;11.63;;
52786;SDS011;38661;53.152;5.846;2023-11-21T06:32:54;25.25;;;12.07;;
52786;SDS011;38661;53.152;5.846;2023-11-21T06:35:21;25.45;;;12.70;;
52786;SDS011;38661;53.152;5.846;2023-11-21T06:37:47;27.95;;;13.02;;
52786;SDS011;38661;53.152;5.846;2023-11-21T06:40:13;31.02;;;14.45;;
52786;SDS011;38661;53.152;5.846;2023-11-21T06:42:43;32.50;;;14.48;;
52786;SDS011;38661;53.152;5.846;2023-11-21T06:45:09;30.35;;;14.88;;
52786;SDS011;38661;53.152;5.846;2023-11-21T06:47:36;32.55;;;16.27;;
52786;SDS011;38661;53.152;5.846;2023-11-21T06:50:03;37.92;;;16.08;;
52786;SDS011;38661;53.152;5.846;2023-11-21T06:52:29;32.83;;;15.75;;
52786;SDS011;38661;53.152;5.846;2023-11-21T06:54:55;40.05;;;17.65;;
52786;SDS011;38661;53.152;5.846;2023-11-21T06:57:22;38.45;;;15.70;;
52786;SDS011;38661;53.152;5.846;2023-11-21T06:59:48;42.67;;;17.83;;
52786;SDS011;38661;53.152;5.846;2023-11-21T07:02:15;36.22;;;16.80;;
52786;SDS011;38661;53.152;5.846;2023-11-21T07:04:43;34.45;;;16.27;;
52786;SDS011;38661;53.152;5.846;2023-11-21T07:07:11;37.50;;;16.77;;
52786;SDS011;38661;53.152;5.846;2023-11-21T07:09:37;32.17;;;16.42;;
52786;SDS011;38661;53.152;5.846;2023-11-21T07:12:03;38.95;;;17.00;;
52786;SDS011;38661;53.152;5.846;2023-11-21T07:14:32;32.42;;;16.27;;
52786;SDS011;38661;53.152;5.846;2023-11-21T07:16:58;30.55;;;14.30;;
52786;SDS011;38661;53.152;5.846;2023-11-21T07:19:24;35.25;;;15.55;;
52786;SDS011;38661;53.152;5.846;2023-11-21T07:21:50;27.13;;;13.88;;
52786;SDS011;38661;53.152;5.846;2023-11-21T07:24:16;33.58;;;15.73;;
52786;SDS011;38661;53.152;5.846;2023-11-21T07:26:42;35.30;;;16.35;;
52786;SDS011;38661;53.152;5.846;2023-11-21T07:29:08;35.13;;;16.98;;
52786;SDS011;38661;53.152;5.846;2023-11-21T07:31:33;40.10;;;18.52;;
52786;SDS011;38661;53.152;5.846;2023-11-21T07:33:59;36.90;;;17.23;;
52786;SDS011;38661;53.152;5.846;2023-11-21T07:36:26;30.65;;;15.48;;
52786;SDS011;38661;53.152;5.846;2023-11-21T07:38:52;28.88;;;16.27;;
52786;SDS011;38661;53.152;5.846;2023-11-21T07:41:18;25.33;;;14.98;;
52786;SDS011;38661;53.152;5.846;2023-11-21T07:43:44;24.73;;;13.45;;
52786;SDS011;38661;53.152;5.846;2023-11-21T07:46:10;23.50;;;13.13;;
52786;SDS011;38661;53.152;5.846;2023-11-21T07:48:40;22.38;;;12.77;;
52786;SDS011;38661;53.152;5.846;2023-11-21T07:51:07;23.13;;;12.73;;
52786;SDS011;38661;53.152;5.846;2023-11-21T07:53:33;18.55;;;11.48;;
52786;SDS011;38661;53.152;5.846;2023-11-21T07:56:03;19.98;;;10.75;;
52786;SDS011;38661;53.152;5.846;2023-11-21T07:58:30;16.20;;;10.88;;
52786;SDS011;38661;53.152;5.846;2023-11-21T08:00:58;18.08;;;11.05;;
52786;SDS011;38661;53.152;5.846;2023-11-21T08:03:24;18.08;;;11.45;;
52786;SDS011;38661;53.152;5.846;2023-11-21T08:05:51;17.80;;;11.60;;
52786;SDS011;38661;53.152;5.846;2023-11-21T08:08:17;17.60;;;11.52;;
52786;SDS011;38661;53.152;5.846;2023-11-21T08:10:44;16.90;;;11.20;;
52786;SDS011;38661;53.152;5.846;2023-11-21T08:13:21;18.42;;;12.27;;
52786;SDS011;38661;53.152;5.846;2023-11-21T08:15:47;18.50;;;11.02;;
52786;SDS011;38661;53.152;5.846;2023-11-21T08:18:13;17.13;;;10.50;;
52786;SDS011;38661;53.152;5.846;2023-11-21T08:20:40;18.98;;;11.48;;
52786;SDS011;38661;53.152;5.846;2023-11-21T08:23:05;16.38;;;11.63;;
52786;SDS011;38661;53.152;5.846;2023-11-21T08:25:31;18.60;;;10.77;;
52786;SDS011;38661;53.152;5.846;2023-11-21T08:27:59;17.33;;;11.60;;
52786;SDS011;38661;53.152;5.846;2023-11-21T08:30:25;19.27;;;11.68;;
52786;SDS011;38661;53.152;5.846;2023-11-21T08:32:54;17.50;;;11.15;;
52786;SDS011;38661;53.152;5.846;2023-11-21T08:35:23;15.88;;;10.70;;
52786;SDS011;38661;53.152;5.846;2023-11-21T08:37:52;17.83;;;11.10;;
52786;SDS011;38661;53.152;5.846;2023-11-21T08:40:18;20.52;;;10.95;;
52786;SDS011;38661;53.152;5.846;2023-11-21T08:42:46;17.73;;;10.18;;
52786;SDS011;38661;53.152;5.846;2023-11-21T08:45:13;16.05;;;10.57;;
52786;SDS011;38661;53.152;5.846;2023-11-21T08:47:42;16.05;;;10.27;;
52786;SDS011;38661;53.152;5.846;2023-11-21T08:50:09;15.05;;;9.52;;
52786;SDS011;38661;53.152;5.846;2023-11-21T08:52:37;18.48;;;10.20;;
52786;SDS011;38661;53.152;5.846;2023-11-21T08:55:06;17.77;;;10.45;;
52786;SDS011;38661;53.152;5.846;2023-11-21T08:57:37;18.13;;;11.55;;
52786;SDS011;38661;53.152;5.846;2023-11-21T09:00:04;17.48;;;10.85;;
52786;SDS011;38661;53.152;5.846;2023-11-21T09:02:35;16.25;;;11.07;;
52786;SDS011;38661;53.152;5.846;2023-11-21T09:05:02;18.02;;;11.70;;
52786;SDS011;38661;53.152;5.846;2023-11-21T09:07:31;18.15;;;12.60;;
52786;SDS011;38661;53.152;5.846;2023-11-21T09:09:57;19.00;;;12.40;;
52786;SDS011;38661;53.152;5.846;2023-11-21T09:12:22;18.10;;;12.10;;
52786;SDS011;38661;53.152;5.846;2023-11-21T09:14:50;23.42;;;13.60;;
52786;SDS011;38661;53.152;5.846;2023-11-21T09:17:16;19.35;;;13.10;;
52786;SDS011;38661;53.152;5.846;2023-11-21T09:19:41;19.45;;;13.02;;
52786;SDS011;38661;53.152;5.846;2023-11-21T09:22:10;19.27;;;12.82;;
52786;SDS011;38661;53.152;5.846;2023-11-21T09:24:36;20.23;;;13.55;;
52786;SDS011;38661;53.152;5.846;2023-11-21T09:27:02;19.15;;;12.43;;
52786;SDS011;38661;53.152;5.846;2023-11-21T09:29:30;22.25;;;13.68;;
52786;SDS011;38661;53.152;5.846;2023-11-21T09:31:57;20.70;;;14.07;;
52786;SDS011;38661;53.152;5.846;2023-11-21T09:34:25;21.00;;;11.85;;
52786;SDS011;38661;53.152;5.846;2023-11-21T09:36:50;17.85;;;12.35;;
52786;SDS011;38661;53.152;5.846;2023-11-21T09:39:16;16.15;;;11.65;;
52786;SDS011;38661;53.152;5.846;2023-11-21T09:41:44;19.17;;;13.32;;
52786;SDS011;38661;53.152;5.846;2023-11-21T09:44:18;20.02;;;13.05;;
52786;SDS011;38661;53.152;5.846;2023-11-21T09:46:46;22.05;;;13.90;;
52786;SDS011;38661;53.152;5.846;2023-11-21T09:49:14;17.83;;;13.85;;
52786;SDS011;38661;53.152;5.846;2023-11-21T09:51:44;18.30;;;13.23;;
52786;SDS011;38661;53.152;5.846;2023-11-21T09:54:11;18.10;;;11.30;;
52786;SDS011;38661;53.152;5.846;2023-11-21T09:56:41;21.05;;;12.85;;
52786;SDS011;38661;53.152;5.846;2023-11-21T09:59:07;16.52;;;11.43;;
52786;SDS011;38661;53.152;5.846;2023-11-21T10:01:40;16.23;;;10.65;;
52786;SDS011;38661;53.152;5.846;2023-11-21T10:04:07;14.43;;;9.93;;
52786;SDS011;38661;53.152;5.846;2023-11-21T10:06:40;12.10;;;9.80;;
52786;SDS011;38661;53.152;5.846;2023-11-21T10:09:13;13.00;;;9.50;;
52786;SDS011;38661;53.152;5.846;2023-11-21T10:11:41;14.43;;;9.90;;
52786;SDS011;38661;53.152;5.846;2023-11-21T10:14:08;13.30;;;10.63;;
52786;SDS011;38661;53.152;5.846;2023-11-21T10:16:38;13.32;;;9.52;;
52786;SDS011;38661;53.152;5.846;2023-11-21T10:19:05;12.88;;;9.25;;
52786;SDS011;38661;53.152;5.846;2023-11-21T10:21:34;14.63;;;10.43;;
52786;SDS011;38661;53.152;5.846;2023-11-21T10:24:00;14.95;;;11.15;;
52786;SDS011;38661;53.152;5.846;2023-11-21T10:26:27;15.68;;;11.02;;
52786;SDS011;38661;53.152;5.846;2023-11-21T10:29:00;14.05;;;10.57;;
52786;SDS011;38661;53.152;5.846;2023-11-21T10:31:31;13.82;;;10.98;;
52786;SDS011;38661;53.152;5.846;2023-11-21T10:36:43;15.13;;;10.38;;
52786;SDS011;38661;53.152;5.846;2023-11-21T10:39:09;21.40;;;12.02;;
52786;SDS011;38661;53.152;5.846;2023-11-21T10:41:39;16.77;;;10.27;;
52786;SDS011;38661;53.152;5.846;2023-11-21T10:44:05;14.88;;;11.90;;
52786;SDS011;38661;53.152;5.846;2023-11-21T10:46:32;18.10;;;12.45;;
52786;SDS011;38661;53.152;5.846;2023-11-21T10:48:59;16.27;;;11.60;;
52786;SDS011;38661;53.152;5.846;2023-11-21T10:51:25;17.15;;;11.98;;
52786;SDS011;38661;53.152;5.846;2023-11-21T10:53:51;14.38;;;11.13;;
52786;SDS011;38661;53.152;5.846;2023-11-21T10:56:18;15.65;;;11.88;;
52786;SDS011;38661;53.152;5.846;2023-11-21T10:58:46;15.63;;;12.27;;
52786;SDS011;38661;53.152;5.846;2023-11-21T11:01:15;22.50;;;13.25;;
52786;SDS011;38661;53.152;5.846;2023-11-21T11:03:44;15.77;;;11.52;;
52786;SDS011;38661;53.152;5.846;2023-11-21T11:06:10;17.55;;;12.50;;
52786;SDS011;38661;53.152;5.846;2023-11-21T11:08:37;15.48;;;11.57;;
52786;SDS011;38661;53.152;5.846;2023-11-21T11:11:05;17.50;;;11.63;;
52786;SDS011;38661;53.152;5.846;2023-11-21T11:13:31;13.23;;;11.35;;
52786;SDS011;38661;53.152;5.846;2023-11-21T11:16:00;12.68;;;11.13;;
52786;SDS011;38661;53.152;5.846;2023-11-21T11:18:29;14.32;;;11.43;;
52786;SDS011;38661;53.152;5.846;2023-11-21T11:21:01;13.32;;;11.55;;
52786;SDS011;38661;53.152;5.846;2023-11-21T11:23:49;12.18;;;10.75;;
52786;SDS011;38661;53.152;5.846;2023-11-21T11:26:36;12.98;;;10.30;;
52786;SDS011;38661;53.152;5.846;2023-11-21T11:31:48;13.43;;;10.05;;
52786;SDS011;38661;53.152;5.846;2023-11-21T11:35:10;14.63;;;9.45;;
52786;SDS011;38661;53.152;5.846;2023-11-21T11:37:31;11.05;;;8.32;;
52786;SDS011;38661;53.152;5.846;2023-11-21T11:39:57;11.02;;;8.95;;
52786;SDS011;38661;53.152;5.846;2023-11-21T11:42:25;8.95;;;8.05;;
52786;SDS011;38661;53.152;5.846;2023-11-21T11:44:52;9.23;;;8.27;;
52786;SDS011;38661;53.152;5.846;2023-11-21T11:50:08;8.15;;;6.78;;
52786;SDS011;38661;53.152;5.846;2023-11-21T11:52:44;8.35;;;6.82;;
52786;SDS011;38661;53.152;5.846;2023-11-21T11:55:19;9.40;;;6.97;;
52786;SDS011;38661;53.152;5.846;2023-11-21T11:57:47;9.10;;;7.30;;
52786;SDS011;38661;53.152;5.846;2023-11-21T12:02:53;8.52;;;6.22;;
52786;SDS011;38661;53.152;5.846;2023-11-21T12:05:21;7.68;;;6.28;;
52786;SDS011;38661;53.152;5.846;2023-11-21T12:07:57;8.77;;;6.20;;
52786;SDS011;38661;53.152;5.846;2023-11-21T12:10:26;7.40;;;6.00;;
52786;SDS011;38661;53.152;5.846;2023-11-21T12:13:05;8.35;;;5.72;;
52786;SDS011;38661;53.152;5.846;2023-11-21T12:15:35;7.00;;;5.80;;
52786;SDS011;38661;53.152;5.846;2023-11-21T12:18:01;6.80;;;5.63;;
52786;SDS011;38661;53.152;5.846;2023-11-21T12:20:28;7.57;;;5.90;;
52786;SDS011;38661;53.152;5.846;2023-11-21T12:22:57;7.63;;;5.65;;
52786;SDS011;38661;53.152;5.846;2023-11-21T12:25:27;12.85;;;5.53;;
52786;SDS011;38661;53.152;5.846;2023-11-21T12:27:55;7.95;;;5.07;;
52786;SDS011;38661;53.152;5.846;2023-11-21T12:30:23;8.27;;;5.88;;
52786;SDS011;38661;53.152;5.846;2023-11-21T12:32:56;7.47;;;6.35;;
52786;SDS011;38661;53.152;5.846;2023-11-21T12:35:41;6.57;;;5.43;;
52786;SDS011;38661;53.152;5.846;2023-11-21T12:38:09;7.22;;;5.75;;
52786;SDS011;38661;53.152;5.846;2023-11-21T12:40:35;6.90;;;4.72;;
52786;SDS011;38661;53.152;5.846;2023-11-21T12:43:00;6.10;;;5.00;;
52786;SDS011;38661;53.152;5.846;2023-11-21T12:45:29;7.15;;;5.25;;
52786;SDS011;38661;53.152;5.846;2023-11-21T12:47:59;8.18;;;6.30;;
52786;SDS011;38661;53.152;5.846;2023-11-21T12:50:32;7.15;;;5.82;;
52786;SDS011;38661;53.152;5.846;2023-11-21T12:53:08;8.40;;;5.72;;
52786;SDS011;38661;53.152;5.846;2023-11-21T12:55:44;7.75;;;6.13;;
52786;SDS011;38661;53.152;5.846;2023-11-21T12:58:15;7.18;;;5.65;;
52786;SDS011;38661;53.152;5.846;2023-11-21T13:00:47;8.10;;;6.07;;
52786;SDS011;38661;53.152;5.846;2023-11-21T13:03:15;6.35;;;5.35;;
52786;SDS011;38661;53.152;5.846;2023-11-21T13:05:48;8.93;;;6.70;;
52786;SDS011;38661;53.152;5.846;2023-11-21T13:08:16;6.82;;;5.75;;
52786;SDS011;38661;53.152;5.846;2023-11-21T13:10:45;6.90;;;5.00;;
52786;SDS011;38661;53.152;5.846;2023-11-21T13:13:14;10.23;;;6.32;;
52786;SDS011;38661;53.152;5.846;2023-11-21T13:15:55;6.40;;;5.20;;
52786;SDS011;38661;53.152;5.846;2023-11-21T13:18:33;5.82;;;5.10;;
52786;SDS011;38661;53.152;5.846;2023-11-21T13:20:59;7.57;;;5.05;;
52786;SDS011;38661;53.152;5.846;2023-11-21T13:23:36;6.80;;;4.68;;
52786;SDS011;38661;53.152;5.846;2023-11-21T13:26:03;5.03;;;4.35;;
52786;SDS011;38661;53.152;5.846;2023-11-21T13:28:29;5.85;;;5.00;;
52786;SDS011;38661;53.152;5.846;2023-11-21T13:30:58;5.60;;;4.60;;
52786;SDS011;38661;53.152;5.846;2023-11-21T13:34:02;5.93;;;4.93;;
52786;SDS011;38661;53.152;5.846;2023-11-21T13:36:33;7.80;;;5.00;;
52786;SDS011;38661;53.152;5.846;2023-11-21T13:39:00;7.00;;;5.00;;
52786;SDS011;38661;53.152;5.846;2023-11-21T13:41:40;8.20;;;5.57;;
52786;SDS011;38661;53.152;5.846;2023-11-21T13:44:07;7.20;;;5.30;;
52786;SDS011;38661;53.152;5.846;2023-11-21T13:46:51;7.63;;;6.38;;
52786;SDS011;38661;53.152;5.846;2023-11-21T13:49:17;8.23;;;5.53;;
52786;SDS011;38661;53.152;5.846;2023-11-21T13:51:46;6.32;;;5.22;;
52786;SDS011;38661;53.152;5.846;2023-11-21T13:54:17;7.18;;;5.78;;
52786;SDS011;38661;53.152;5.846;2023-11-21T13:56:43;7.15;;;5.43;;
52786;SDS011;38661;53.152;5.846;2023-11-21T13:59:11;9.35;;;6.07;;
52786;SDS011;38661;53.152;5.846;2023-11-21T14:01:51;6.43;;;5.68;;
52786;SDS011;38661;53.152;5.846;2023-11-21T14:04:25;9.43;;;7.22;;
52786;SDS011;38661;53.152;5.846;2023-11-21T14:07:26;7.38;;;5.72;;
52786;SDS011;38661;53.152;5.846;2023-11-21T14:10:00;7.93;;;5.90;;
52786;SDS011;38661;53.152;5.846;2023-11-21T14:12:26;8.13;;;6.50;;
52786;SDS011;38661;53.152;5.846;2023-11-21T14:14:53;9.10;;;6.97;;
52786;SDS011;38661;53.152;5.846;2023-11-21T14:17:20;8.15;;;6.82;;
52786;SDS011;38661;53.152;5.846;2023-11-21T14:19:49;8.77;;;6.95;;
52786;SDS011;38661;53.152;5.846;2023-11-21T14:22:18;8.48;;;6.72;;
52786;SDS011;38661;53.152;5.846;2023-11-21T14:24:47;9.32;;;6.60;;
52786;SDS011;38661;53.152;5.846;2023-11-21T14:27:15;8.27;;;6.28;;
52786;SDS011;38661;53.152;5.846;2023-11-21T14:29:41;9.43;;;6.35;;
52786;SDS011;38661;53.152;5.846;2023-11-21T14:32:09;8.82;;;6.97;;
52786;SDS011;38661;53.152;5.846;2023-11-21T14:34:35;11.60;;;6.78;;
52786;SDS011;38661;53.152;5.846;2023-11-21T14:37:01;8.73;;;6.90;;
52786;SDS011;38661;53.152;5.846;2023-11-21T14:39:28;12.73;;;7.72;;
52786;SDS011;38661;53.152;5.846;2023-11-21T14:41:54;9.05;;;6.47;;
52786;SDS011;38661;53.152;5.846;2023-11-21T14:44:25;8.70;;;5.25;;
52786;SDS011;38661;53.152;5.846;2023-11-21T14:46:54;9.18;;;5.70;;
52786;SDS011;38661;53.152;5.846;2023-11-21T14:49:21;9.48;;;5.85;;